Tiempo atmosférico en la estación meteorológica de Jimena de la Frontera, Cádiz (50 m.)



Fecha
DESCASC
Temp. máxima en grados centígrados (hora)
DESCASC
Temp. mínima en grados centígrados (hora)
DESCASC
Temp. media en grados centígrados
DESCASC
Racha de viento máxima en m/sg (hora)
DESCASC
Velocidad máxima media en intervalos de 10 minutos(hora)
DESCASC
Precipitaciones diarias en mm
DESCASC
Precipitaciones de 00:00 a 06:00 en mm
DESCASC
Precipitaciones de 06:00 a 12:00 en mm
DESCASC
Precipitaciones de 12:00 a 18:00 en mm
DESCASC
Precipitaciones de 18:00 a 24:00 en mm
DESCASC
10-07-2020 31.7 (15:20) 14.6 (07:00) 23.2 8.06 (16:10) 4.44 (19:10) 0 0 0 0 0
09-07-2020 34.2 (16:50) 14.3 (07:00) 24.3 6.67 (19:40) 4.17 (19:50) 0 0 0 0 0
08-07-2020 32.2 (13:20) 17 (07:40) 24.6 11.11 (13:30) 5.83 (13:00) 0 0 0 0 0
07-07-2020 37.6 (16:50) 14.6 (07:20) 26.1 7.78 (18:00) 4.72 (18:00) 0 0 0 0 0
06-07-2020 34.2 (15:20) 13.1 (00:00) 23.7 7.22 (13:40) 3.89 (13:20) 0 0 0 0 0
05-07-2020 30.4 (13:30) 16.3 (00:00) 23.3 13.06 (15:40) 7.22 (14:50) 0 0 0 0 0
04-07-2020 28.7 (13:40) 17.2 (00:00) 23 13.89 (14:30) 8.61 (16:00) 0 0 0 0 0
03-07-2020 35.3 (15:00) 15.7 (07:30) 25.5 10.56 (16:00) 6.94 (16:10) 0 0 0 0 0
02-07-2020 35.1 (16:50) 16.1 (00:00) 25.6 11.39 (14:00) 6.39 (13:30) 0 0 0 0 0
01-07-2020 36 (15:30) 14 (00:00) 25 9.17 (19:00) 5.83 (16:50) 0 0 0 0 0
30-06-2020 31.9 (14:00) 13.9 (00:00) 22.9 9.17 (14:50) 5.56 (14:50) 0 0 0 0 0
29-06-2020 32 (16:20) 15 (00:00) 23.5 11.39 (15:10) 6.39 (15:50) 0 0 0 0 0
28-06-2020 34.5 (16:20) 15.2 (00:00) 24.8 8.61 (17:10) 4.44 (14:20) 0 0 0 0 0
27-06-2020 33.3 (18:20) 12.4 (00:00) 22.8 12.22 (13:20) 7.5 (12:50) 0 0 0 0 0
26-06-2020 29.8 (17:50) 15 (00:00) 22.4 11.67 (13:50) 6.67 (12:20) 0 0 0 0 0
25-06-2020 31 (16:20) 13.8 (00:00) 22.4 8.33 (15:40) 4.72 (16:50) 0 0 0 0 0
24-06-2020 29.1 (12:40) 15.8 (00:00) 22.5 11.94 (18:00) 6.94 (14:10) 0 0 0 0 0
23-06-2020 30.1 (17:10) 14.5 (00:00) 22.3 12.22 (17:40) 5.56 (17:20) 0 0 0 0 0
22-06-2020 32.1 (15:40) 13.1 (00:00) 22.6 13.61 (17:00) 7.22 (17:00) 0 0 0 0 0
21-06-2020 36 (14:50) 13.1 (00:00) 24.6 9.72 (16:40) 5.56 (15:30) 0 0 0 0 0
20-06-2020 29.5 (14:20) 13 (00:00) 21.3 10.28 (15:10) 5.83 (15:00) 0 0 0 0 0
19-06-2020 29.8 (15:50) 14.5 (00:00) 22.1 9.44 (10:40) 5.28 (16:20) 0 0 0 0 0
18-06-2020 30.1 (16:20) 13.3 (00:00) 21.7 10.83 (17:10) 6.94 (16:40) 0 0 0 0 0
17-06-2020 30.5 (18:10) 14.6 (00:00) 22.6 10 (19:20) 5.83 (12:40) 0 0 0 0 0
16-06-2020 28.1 (17:50) 16.6 (00:00) 22.4 11.39 (16:30) 7.22 (15:40) 0 0 0 0 0
15-06-2020 29.4 (18:00) 11.3 (00:00) 20.3 10.83 (16:10) 6.67 (12:50) 0 0 0 0 0
14-06-2020 26.7 (15:40) 12.3 (00:00) 19.5 12.22 (17:10) 7.22 (17:00) 0 0 0 0 0
13-06-2020 27.2 (16:40) 11.4 (00:00) 19.3 10 (19:10) 5.83 (19:00) 0 0 0 0 0
12-06-2020 24.1 (15:50) 16.2 (00:00) 20.2 11.67 (16:10) 6.67 (16:00) 1.6 1.4 0.2 0 0

Gráficas

Temp. máximas Temp. mínimas Temp. medias Precipitaciones Rachas de viento máximas Velocidades máximas media en intervalos de 10 minutos

Datos horarios

Fecha y hora oficial Temperatura (ºC) Velocidad del viento (km/h) Dirección del viento Racha (km/h) Dirección de racha Precipitación (mm) Presión (hPa) Tendencia (hPa) Humedad (%)
2020-07-11 23:00:00 27.4 17 Sudeste 63 Sudeste 0 -- -- 49
2020-07-11 22:00:00 25.7 14 Sudeste 44 Sur 0 -- -- 66
2020-07-11 21:00:00 26 14 Sudeste 41 Este 0 -- -- 66
2020-07-11 20:00:00 26.8 19 Sudeste 42 Este 0 -- -- 66
2020-07-11 19:00:00 26.4 24 Sudeste 47 Sudeste 0 -- -- 70
2020-07-11 18:00:00 27.8 23 Sudeste 53 Sur 0 -- -- 65
2020-07-11 17:00:00 28.4 23 Sudeste 49 Sudeste 0 -- -- 61
2020-07-11 16:00:00 29.1 25 Sudeste 49 Sudeste 0 -- -- 59
2020-07-11 15:00:00 28.5 22 Sudeste 49 Sudeste 0 -- -- 62
2020-07-11 14:00:00 27.4 26 Sudeste 47 Sudeste 0 -- -- 68
2020-07-11 13:00:00 27 21 Sudeste 40 Sudeste 0 -- -- 68
2020-07-11 12:00:00 26 18 Sudeste 43 Este 0 -- -- 72
2020-07-11 11:00:00 25.8 19 Sudeste 41 Sudeste 0 -- -- 71
2020-07-11 10:00:00 25 12 Sudeste 28 Sudeste 0 -- -- 69
2020-07-11 09:00:00 20.1 0 Calma 3 Noroeste 0 -- -- 80
2020-07-11 08:00:00 16.3 0 Calma 6 Nordeste 0 -- -- 93
2020-07-11 07:00:00 15.5 4 Este 6 Este 0 -- -- 92
2020-07-11 06:00:00 16 5 Nordeste 8 Nordeste 0 -- -- 92
2020-07-11 05:00:00 16.6 3 Este 5 Este 0 -- -- 90
2020-07-11 04:00:00 17.5 2 Norte 7 Nordeste 0 -- -- 89
2020-07-11 03:00:00 18.2 3 Este 5 Norte 0 -- -- 86
2020-07-11 02:00:00 19.3 0 Calma 7 Este 0 -- -- 83
2020-07-11 01:00:00 20.1 3 Nordeste 8 Nordeste 0 -- -- 81
2020-07-11 00:00:00 21 5 Nordeste 6 Nordeste 0 -- -- 78
2020-07-10 23:00:00 22.8 0 Calma 6 Sur 0 -- -- 73
2020-07-10 22:00:00 24.7 3 Sur 14 Sur 0 -- -- 68
2020-07-10 21:00:00 26.3 9 Sur 23 Sudeste 0 -- -- 64
2020-07-10 20:00:00 28.3 13 Sudeste 27 Sudeste 0 -- -- 54
2020-07-10 19:00:00 29.7 15 Sudeste 26 Sudeste 0 -- -- 47
2020-07-10 18:00:00 30.4 13 Sudeste 25 Sudeste 0 -- -- 47
2020-07-10 17:00:00 31.3 14 Sudeste 29 Sudeste 0 -- -- 44
2020-07-10 16:00:00 31.5 12 Sudeste 23 Sudeste 0 -- -- 40
2020-07-10 15:00:00 31.3 11 Sudeste 26 Sudeste 0 -- -- 39
2020-07-10 14:00:00 31 13 Sudeste 24 Sudeste 0 -- -- 41
2020-07-10 13:00:00 30.8 11 Sudeste 21 Sur 0 -- -- 42
2020-07-10 12:00:00 29.6 8 Sur 15 Sur 0 -- -- 45
2020-07-10 11:00:00 27.1 6 Sur 16 Sudeste 0 -- -- 55
2020-07-10 10:00:00 23.6 2 Noroeste 5 Noroeste 0 -- -- 66
2020-07-10 09:00:00 19.7 0 Calma 3 Noroeste 0 -- -- 78
2020-07-10 08:00:00 15.5 0 Calma 6 Este 0 -- -- 89
2020-07-10 07:00:00 14.6 4 Nordeste 6 Nordeste 0 -- -- 89
2020-07-10 06:00:00 15.2 5 Nordeste 8 Nordeste 0 -- -- 88
2020-07-10 05:00:00 16.1 3 Este 6 Nordeste 0 -- -- 85
2020-07-10 04:00:00 16.8 4 Nordeste 6 Nordeste 0 -- -- 82
2020-07-10 03:00:00 17.7 4 Nordeste 8 Nordeste 0 -- -- 78
2020-07-10 02:00:00 18.8 4 Nordeste 8 Nordeste 0 -- -- 75
2020-07-10 01:00:00 20.3 3 Este 7 Nordeste 0 -- -- 69
2020-07-10 00:00:00 22.5 4 Nordeste 8 Sur 0 -- -- 63
2020-07-09 23:00:00 25.5 5 Sur 10 Sur 0 -- -- 57
2020-07-09 22:00:00 26.8 5 Sur 12 Oeste 0 -- -- 53
2020-07-09 21:00:00 29.5 9 Oeste 23 Noroeste 0 -- -- 45
2020-07-09 20:00:00 31.2 13 Oeste 24 Noroeste 0 -- -- 42
2020-07-09 19:00:00 33.1 10 Oeste 22 Noroeste 0 -- -- 42
2020-07-09 18:00:00 33.6 12 Oeste 23 Oeste 0 -- -- 40
2020-07-09 17:00:00 34 11 Sudoeste 22 Sudoeste 0 -- -- 39
2020-07-09 16:00:00 33.3 11 Sudeste 23 Sudoeste 0 -- -- 36
2020-07-09 15:00:00 32.9 9 Sudoeste 22 Oeste 0 -- -- 38
2020-07-09 14:00:00 31 12 Oeste 23 Oeste 0 -- -- 46
2020-07-09 13:00:00 30.5 9 Sudoeste 21 Oeste 0 -- -- 48
2020-07-09 12:00:00 28.3 6 Sudoeste 19 Oeste 0 -- -- 55
2020-07-09 11:00:00 26.2 10 Oeste 16 Oeste 0 -- -- 61
2020-07-09 10:00:00 24.5 3 Noroeste 7 Oeste 0 -- -- 67
2020-07-09 09:00:00 20.4 0 Calma 4 Este 0 -- -- 76
2020-07-09 08:00:00 15.5 0 Calma 5 Este 0 -- -- 90
2020-07-09 07:00:00 14.3 3 Nordeste 5 Nordeste 0 -- -- 90
2020-07-09 06:00:00 14.7 4 Nordeste 6 Nordeste 0 -- -- 89
2020-07-09 05:00:00 15.2 5 Este 6 Este 0 -- -- 87
2020-07-09 04:00:00 16.1 2 Este 8 Nordeste 0 -- -- 85
2020-07-09 03:00:00 16.8 2 Nordeste 5 Este 0 -- -- 82
2020-07-09 02:00:00 17.6 4 Este 6 Nordeste 0 -- -- 78
2020-07-09 01:00:00 19 4 Nordeste 8 Nordeste 0 -- -- 74
2020-07-09 00:00:00 20.8 4 Nordeste 7 Nordeste 0 -- -- 69
2020-07-08 23:00:00 23.2 4 Noroeste 11 Este 0 -- -- 64
2020-07-08 22:00:00 26.3 5 Sudeste 14 Sudeste 0 -- -- 59
2020-07-08 21:00:00 28.7 8 Sudeste 15 Sudeste 0 -- -- 48
2020-07-08 20:00:00 30 10 Sur 19 Sudeste 0 -- -- 39
2020-07-08 19:00:00 31 10 Sur 25 Sudeste 0 -- -- 44
2020-07-08 18:00:00 31.5 14 Sudeste 27 Sudeste 0 -- -- 37
2020-07-08 17:00:00 31.6 15 Sudeste 30 Sudeste 0 -- -- 37
2020-07-08 16:00:00 31.6 17 Sudeste 35 Sudeste 0 -- -- 37
2020-07-08 15:00:00 31.8 17 Sudeste 35 Sudeste 0 -- -- 37
2020-07-08 14:00:00 31.3 19 Sudeste 40 Sudeste 0 -- -- 37
2020-07-08 13:00:00 32 21 Sudeste 37 Sudeste 0 -- -- 28
2020-07-08 12:00:00 30.8 18 Sudeste 33 Sudeste 0 -- -- 30
2020-07-08 11:00:00 28.7 8 Norte 31 Sudeste 0 -- -- 31
2020-07-08 10:00:00 24.7 3 Oeste 6 Sudoeste 0 -- -- 50
2020-07-08 09:00:00 20.3 4 Oeste 10 Este 0 -- -- 68
2020-07-08 08:00:00 17.6 7 Este 9 Este 0 -- -- 76
2020-07-08 07:00:00 17.1 6 Este 12 Noroeste 0 -- -- 76
2020-07-08 06:00:00 17.8 2 Sudoeste 12 Sudeste 0 -- -- 75
2020-07-08 05:00:00 18.7 5 Noroeste 11 Nordeste 0 -- -- 70
2020-07-08 04:00:00 18.8 3 Este 10 Sudoeste 0 -- -- 68
2020-07-08 03:00:00 18.8 0 Calma 9 Norte 0 -- -- 69
2020-07-08 02:00:00 19.6 3 Nordeste 7 Nordeste 0 -- -- 63
2020-07-08 01:00:00 20.8 3 Nordeste 6 Nordeste 0 -- -- 60
2020-07-08 00:00:00 21.4 3 Nordeste 6 Este 0 -- -- 57
2020-07-07 23:00:00 23.4 4 Este 5 Este 0 -- -- 51
2020-07-07 22:00:00 27.3 2 Nordeste 9 Sudeste 0 -- -- 38
2020-07-07 21:00:00 30.6 4 Sur 14 Sudeste 0 -- -- 34
2020-07-07 20:00:00 32.7 4 Sudeste 20 Sudeste 0 -- -- 32
2020-07-07 19:00:00 33.4 12 Sudeste 26 Sudeste 0 -- -- 32
2020-07-07 18:00:00 34.9 17 Sudeste 28 Sudeste 0 -- -- 30
2020-07-07 17:00:00 37.4 10 Sur 18 Sudoeste 0 -- -- 26
2020-07-07 16:00:00 36.1 8 Sudeste 24 Sur 0 -- -- 28
2020-07-07 15:00:00 35.1 12 Sudeste 21 Sudeste 0 -- -- 27
2020-07-07 14:00:00 34.6 12 Sudeste 22 Sur 0 -- -- 26
2020-07-07 13:00:00 34.2 8 Sur 21 Sur 0 -- -- 27
2020-07-07 12:00:00 30.9 5 Oeste 9 Oeste 0 -- -- 39
2020-07-07 11:00:00 27.7 4 Noroeste 6 Noroeste 0 -- -- 42
2020-07-07 10:00:00 23.4 0 Calma 4 Oeste 0 -- -- 49
2020-07-07 09:00:00 19.2 0 Calma 3 Norte 0 -- -- 58
2020-07-07 08:00:00 15.3 0 Calma 8 Este 0 -- -- 74
2020-07-07 07:00:00 14.7 0 Calma 8 Nordeste 0 -- -- 75
2020-07-07 06:00:00 15.2 0 Calma 6 Este 0 -- -- 70
2020-07-07 05:00:00 15.5 5 Este 9 Este 0 -- -- 66
2020-07-07 04:00:00 16 3 Nordeste 6 Este 0 -- -- 64
2020-07-07 03:00:00 16.5 4 Este 6 Este 0 -- -- 60
2020-07-07 02:00:00 17.5 3 Nordeste 5 Este 0 -- -- 55
2020-07-07 01:00:00 18.5 3 Nordeste 8 Nordeste 0 -- -- 51
2020-07-07 00:00:00 20 5 Nordeste 8 Nordeste 0 -- -- 46
2020-07-06 23:00:00 21.9 3 Nordeste 9 Nordeste 0 -- -- 40
2020-07-06 22:00:00 26.2 2 Sudeste 9 Sur 0 -- -- 32
2020-07-06 21:00:00 28.9 6 Sur 19 Sudeste 0 -- -- 25
2020-07-06 20:00:00 30.7 12 Sudeste 22 Sudeste 0 -- -- 25
2020-07-06 19:00:00 32.5 11 Sudeste 24 Sudeste 0 -- -- 27
2020-07-06 18:00:00 33.6 12 Sudeste 23 Sudeste 0 -- -- 30
2020-07-06 17:00:00 33.6 11 Sur 25 Sudeste 0 -- -- 31
2020-07-06 16:00:00 33.8 14 Sudeste 24 Sur 0 -- -- 30
2020-07-06 15:00:00 33.5 12 Sur 23 Sudeste 0 -- -- 35
2020-07-06 14:00:00 32.3 13 Sur 26 Sudeste 0 -- -- 38
2020-07-06 13:00:00 31.8 10 Sur 23 Sur 0 -- -- 38
2020-07-06 12:00:00 30 9 Sudeste 18 Sudeste 0 -- -- 40
2020-07-06 11:00:00 27.1 5 Noroeste 8 Noroeste 0 -- -- 49
2020-07-06 10:00:00 23.3 0 Calma 5 Noroeste 0 -- -- 57
2020-07-06 09:00:00 19 0 Calma 5 Este 0 -- -- 71
2020-07-06 08:00:00 14.4 4 Este 6 Nordeste 0 -- -- 86
2020-07-06 07:00:00 13.3 3 Nordeste 6 Nordeste 0 -- -- 88
2020-07-06 06:00:00 13.9 3 Este 6 Nordeste 0 -- -- 86
2020-07-06 05:00:00 14.6 3 Este 8 Nordeste 0 -- -- 85
2020-07-06 04:00:00 15.3 4 Nordeste 8 Nordeste 0 -- -- 83
2020-07-06 03:00:00 16.2 4 Este 8 Nordeste 0 -- -- 80
2020-07-06 02:00:00 17.2 5 Nordeste 8 Nordeste 0 -- -- 76
2020-07-06 01:00:00 19 4 Nordeste 8 Nordeste 0 -- -- 71
2020-07-06 00:00:00 20.7 3 Nordeste 9 Nordeste 0 -- -- 65
2020-07-05 23:00:00 23.1 5 Nordeste 12 Este 0 -- -- 58
2020-07-05 22:00:00 25 6 Sudeste 21 Sudeste 0 -- -- 52
2020-07-05 21:00:00 26.6 9 Sur 26 Sur 0 -- -- 50
2020-07-05 20:00:00 28.1 12 Sudeste 35 Sudeste 0 -- -- 47
2020-07-05 19:00:00 28.8 17 Sudeste 41 Sudeste 0 -- -- 44
2020-07-05 18:00:00 29.2 22 Sudeste 43 Sudeste 0 -- -- 46
2020-07-05 17:00:00 29.9 21 Sudeste 46 Sudeste 0 -- -- 43
2020-07-05 16:00:00 29.9 25 Sudeste 47 Sudeste 0 -- -- 41
2020-07-05 15:00:00 29.8 24 Sudeste 45 Sudeste 0 -- -- 41
2020-07-05 14:00:00 29.9 23 Sudeste 44 Este 0 -- -- 43
2020-07-05 13:00:00 29.9 21 Sudeste 45 Sur 0 -- -- 41
2020-07-05 12:00:00 28.5 21 Sudeste 40 Sudeste 0 -- -- 51
2020-07-05 11:00:00 26.9 13 Sudeste 26 Sudeste 0 -- -- 62
2020-07-05 10:00:00 23.6 5 Noroeste 8 Noroeste 0 -- -- 77
2020-07-05 09:00:00 21 0 Calma 3 Este 0 -- -- 84
2020-07-05 08:00:00 17 3 Norte 5 Este 0 -- -- 95
2020-07-05 07:00:00 16.5 2 Sur 6 Este 0 -- -- 95
2020-07-05 06:00:00 16.9 3 Nordeste 6 Nordeste 0 -- -- 94
2020-07-05 05:00:00 17.2 0 Calma 5 Nordeste 0 -- -- 93
2020-07-05 04:00:00 17.5 3 Nordeste 5 Este 0 -- -- 93
2020-07-05 03:00:00 18 2 Nordeste 6 Nordeste 0 -- -- 92
2020-07-05 02:00:00 18.6 3 Nordeste 7 Nordeste 0 -- -- 90
2020-07-05 01:00:00 19.1 4 Nordeste 8 Nordeste 0 -- -- 89
2020-07-05 00:00:00 20.2 5 Nordeste 8 Sudoeste 0 -- -- 86
2020-07-04 23:00:00 22.5 4 Sudoeste 9 Sudoeste 0 -- -- 81
2020-07-04 22:00:00 23.6 5 Sur 21 Sudeste 0 -- -- 77
2020-07-04 21:00:00 24.8 14 Sudeste 37 Sudeste 0 -- -- 73
2020-07-04 20:00:00 25.9 21 Sudeste 40 Sur 0 -- -- 69
2020-07-04 19:00:00 27.2 17 Sudeste 38 Sudeste 0 -- -- 65
2020-07-04 18:00:00 27.5 21 Sudeste 40 Este 0 -- -- 64
2020-07-04 17:00:00 28.1 21 Sudeste 48 Este 0 -- -- 62
2020-07-04 16:00:00 27.7 31 Sudeste 50 Este 0 -- -- 63
2020-07-04 15:00:00 28.6 24 Sudeste 50 Sudeste 0 -- -- 62
2020-07-04 14:00:00 28.6 21 Sudeste 49 Este 0 -- -- 61
2020-07-04 13:00:00 27.9 24 Sudeste 48 Este 0 -- -- 62
2020-07-04 12:00:00 27 25 Sudeste 46 Este 0 -- -- 67
2020-07-04 11:00:00 25.8 19 Sudeste 41 Sudeste 0 -- -- 73
2020-07-04 10:00:00 24.5 15 Sudeste 30 Este 0 -- -- 78
2020-07-04 09:00:00 21.1 0 Calma 4 Este 0 -- -- 85
2020-07-04 08:00:00 19.4 0 Calma 3 Oeste 0 -- -- 87
2020-07-04 07:00:00 18.4 2 Norte 4 Noroeste 0 -- -- 90
2020-07-04 06:00:00 17.2 0 Calma 6 Nordeste 0 -- -- 90
2020-07-04 05:00:00 17.8 3 Nordeste 6 Este 0 -- -- 89
2020-07-04 04:00:00 18.5 3 Nordeste 6 Nordeste 0 -- -- 88
2020-07-04 03:00:00 19.1 2 Nordeste 8 Nordeste 0 -- -- 86
2020-07-04 02:00:00 19.6 5 Nordeste 8 Nordeste 0 -- -- 85
2020-07-04 01:00:00 20.3 0 Calma 5 Este 0 -- -- 82
2020-07-04 00:00:00 21.5 3 Este 5 Sur 0 -- -- 79
2020-07-03 23:00:00 23.7 0 Calma 7 Sur 0 -- -- 74
2020-07-03 22:00:00 26.1 3 Sur 15 Sudeste 0 -- -- 64
2020-07-03 21:00:00 28.9 8 Sudeste 22 Sudeste 0 -- -- 55
2020-07-03 20:00:00 30.6 10 Sudeste 23 Sudeste 0 -- -- 47
2020-07-03 19:00:00 31.9 12 Sudeste 28 Sudeste 0 -- -- 44
2020-07-03 18:00:00 32 15 Sudeste 35 Este 0 -- -- 42
2020-07-03 17:00:00 31.8 21 Este 36 Este 0 -- -- 45
2020-07-03 16:00:00 31.9 23 Este 38 Este 0 -- -- 41
2020-07-03 15:00:00 35.3 12 Oeste 25 Oeste 0 -- -- 27
2020-07-03 14:00:00 34.3 14 Oeste 27 Oeste 0 -- -- 33
2020-07-03 13:00:00 33.1 14 Noroeste 26 Noroeste 0 -- -- 28
2020-07-03 12:00:00 31.7 14 Noroeste 25 Noroeste 0 -- -- 28
2020-07-03 11:00:00 30.6 12 Noroeste 25 Oeste 0 -- -- 41
2020-07-03 10:00:00 27.4 2 Norte 4 Norte 0 -- -- 49
2020-07-03 09:00:00 22.4 2 Sur 8 Nordeste 0 -- -- 66
2020-07-03 08:00:00 17.1 5 Nordeste 9 Nordeste 0 -- -- 78
2020-07-03 07:00:00 16 5 Nordeste 10 Nordeste 0 -- -- 82
2020-07-03 06:00:00 17 7 Nordeste 10 Nordeste 0 -- -- 79
2020-07-03 05:00:00 19.5 3 Nordeste 10 Oeste 0 -- -- 71
2020-07-03 04:00:00 21.3 4 Nordeste 15 Oeste 0 -- -- 66
2020-07-03 03:00:00 21.2 6 Oeste 15 Oeste 0 -- -- 67
2020-07-03 02:00:00 21.9 5 Sur 12 Sudeste 0 -- -- 64
2020-07-03 01:00:00 22.4 5 Este 19 Noroeste 0 -- -- 63
2020-07-03 00:00:00 24.8 13 Oeste 26 Oeste 0 -- -- 57
2020-07-02 23:00:00 25.9 12 Oeste 21 Oeste 0 -- -- 54
2020-07-02 22:00:00 27.8 12 Oeste 25 Oeste 0 -- -- 49
2020-07-02 21:00:00 30.6 13 Oeste 31 Oeste 0 -- -- 42
2020-07-02 20:00:00 32.7 15 Oeste 34 Oeste 0 -- -- 37
2020-07-02 19:00:00 34.2 16 Noroeste 37 Noroeste 0 -- -- 30
2020-07-02 18:00:00 34.6 19 Noroeste 39 Noroeste 0 -- -- 30
2020-07-02 17:00:00 35.1 19 Noroeste 37 Noroeste 0 -- -- 35
2020-07-02 16:00:00 34.8 21 Noroeste 38 Noroeste 0 -- -- 31
2020-07-02 15:00:00 34.4 19 Noroeste 39 Noroeste 0 -- -- 37
2020-07-02 14:00:00 33.7 23 Noroeste 41 Oeste 0 -- -- 39
2020-07-02 13:00:00 33.3 23 Noroeste 37 Oeste 0 -- -- 38
2020-07-02 12:00:00 32.6 14 Noroeste 28 Noroeste 0 -- -- 40
2020-07-02 11:00:00 30.7 14 Oeste 26 Noroeste 0 -- -- 49
2020-07-02 10:00:00 27.7 10 Oeste 21 Oeste 0 -- -- 53
2020-07-02 09:00:00 24.9 3 Sudoeste 15 Sudoeste 0 -- -- 59
2020-07-02 08:00:00 17.7 4 Sur 8 Este 0 -- -- 73
2020-07-02 07:00:00 16.2 4 Este 9 Este 0 -- -- 73
2020-07-02 06:00:00 16.4 5 Este 12 Sudoeste 0 -- -- 68
2020-07-02 05:00:00 16.2 3 Sudeste 9 Nordeste 0 -- -- 69
2020-07-02 04:00:00 16.6 3 Nordeste 10 Nordeste 0 -- -- 68
2020-07-02 03:00:00 17.4 5 Nordeste 12 Este 0 -- -- 65
2020-07-02 02:00:00 18.1 8 Nordeste 12 Nordeste 0 -- -- 63
2020-07-02 01:00:00 19.7 4 Nordeste 17 Oeste 0 -- -- 59
2020-07-02 00:00:00 21.7 5 Este 10 Noroeste 0 -- -- 54
2020-07-01 23:00:00 26.5 5 Noroeste 15 Noroeste 0 -- -- 44
2020-07-01 22:00:00 29 8 Noroeste 18 Noroeste 0 -- -- 38
2020-07-01 21:00:00 31.8 12 Oeste 27 Oeste 0 -- -- 33
2020-07-01 20:00:00 33.5 18 Oeste 31 Oeste 0 -- -- 33
2020-07-01 19:00:00 34.5 20 Oeste 33 Oeste 0 -- -- 33
2020-07-01 18:00:00 35.2 18 Oeste 30 Oeste 0 -- -- 35
2020-07-01 17:00:00 35.3 20 Oeste 32 Oeste 0 -- -- 34
2020-07-01 16:00:00 35.7 17 Oeste 29 Oeste 0 -- -- 36
2020-07-01 15:00:00 35.7 16 Oeste 28 Oeste 0 -- -- 33
2020-07-01 14:00:00 35.1 14 Noroeste 27 Noroeste 0 -- -- 25
2020-07-01 13:00:00 33.3 16 Oeste 26 Oeste 0 -- -- 36
2020-07-01 12:00:00 31.3 13 Oeste 22 Oeste 0 -- -- 44
2020-07-01 11:00:00 30 10 Oeste 17 Oeste 0 -- -- 45
2020-07-01 10:00:00 26.2 2 Sur 6 Sudeste 0 -- -- 54
2020-07-01 09:00:00 20.2 0 Calma 5 Norte 0 -- -- 74
2020-07-01 08:00:00 15.3 3 Norte 9 Nordeste 0 -- -- 89
2020-07-01 07:00:00 14.3 3 Este 8 Nordeste 0 -- -- 89
2020-07-01 06:00:00 14.7 3 Nordeste 6 Norte 0 -- -- 90
2020-07-01 05:00:00 15 5 Nordeste 9 Nordeste 0 -- -- 89
2020-07-01 04:00:00 15.8 6 Nordeste 10 Nordeste 0 -- -- 89
2020-07-01 03:00:00 16.7 4 Este 6 Este 0 -- -- 87
2020-07-01 02:00:00 17.9 3 Norte 8 Este 0 -- -- 83
2020-07-01 01:00:00 18.7 3 Nordeste 6 Nordeste 0 -- -- 80
2020-07-01 00:00:00 20 4 Nordeste 7 Nordeste 0 -- -- 75
2020-06-30 23:00:00 21.7 4 Nordeste 8 Nordeste 0 -- -- 69
2020-06-30 22:00:00 26.2 2 Sur 8 Sur 0 -- -- 59
2020-06-30 21:00:00 29.2 2 Sur 8 Sudeste 0 -- -- 46
2020-06-30 20:00:00 29.8 5 Sur 18 Sudeste 0 -- -- 45
2020-06-30 19:00:00 29.5 8 Sudeste 19 Este 0 -- -- 53
2020-06-30 18:00:00 29.9 10 Sudeste 28 Sudeste 0 -- -- 51
2020-06-30 17:00:00 30.6 10 Sur 29 Sudeste 0 -- -- 45
2020-06-30 16:00:00 31.1 13 Sur 30 Sudeste 0 -- -- 41
2020-06-30 15:00:00 30.9 18 Sudeste 33 Sudeste 0 -- -- 38
2020-06-30 14:00:00 31.9 14 Sudeste 31 Sudeste 0 -- -- 38
2020-06-30 13:00:00 30.4 13 Sur 23 Sur 0 -- -- 41
2020-06-30 12:00:00 29.2 8 Sudeste 19 Este 0 -- -- 47
2020-06-30 11:00:00 26.2 5 Sudoeste 9 Sur 0 -- -- 54
2020-06-30 10:00:00 22.7 3 Oeste 8 Sudoeste 0 -- -- 59
2020-06-30 09:00:00 18.7 0 Calma 3 Este 0 -- -- 67
2020-06-30 08:00:00 14.6 0 Calma 6 Este 0 -- -- 83
2020-06-30 07:00:00 14 3 Sudeste 5 Este 0 -- -- 81
2020-06-30 06:00:00 14.4 0 Calma 5 Este 0 -- -- 79
2020-06-30 05:00:00 14.6 3 Nordeste 6 Este 0 -- -- 78
2020-06-30 04:00:00 15 0 Calma 6 Este 0 -- -- 75
2020-06-30 03:00:00 15.7 4 Nordeste 6 Nordeste 0 -- -- 73
2020-06-30 02:00:00 16.5 3 Este 5 Este 0 -- -- 68
2020-06-30 01:00:00 17.7 3 Nordeste 8 Nordeste 0 -- -- 65
2020-06-30 00:00:00 19.1 3 Nordeste 10 Nordeste 0 -- -- 61
2020-06-29 23:00:00 21.4 5 Nordeste 8 Sudeste 0 -- -- 54
2020-06-29 22:00:00 24.7 7 Sudeste 14 Este 0 -- -- 43
2020-06-29 21:00:00 27.3 7 Sudeste 20 Sudeste 0 -- -- 39
2020-06-29 20:00:00 28.8 10 Sudeste 24 Sudeste 0 -- -- 36
2020-06-29 19:00:00 30.5 10 Sur 31 Sudeste 0 -- -- 33
2020-06-29 18:00:00 31 16 Sudeste 33 Sur 0 -- -- 33
2020-06-29 17:00:00 31.8 14 Sudeste 35 Sudeste 0 -- -- 31
2020-06-29 16:00:00 31.6 19 Sudeste 41 Sudeste 0 -- -- 31
2020-06-29 15:00:00 31.6 21 Sudeste 37 Sudeste 0 -- -- 31
2020-06-29 14:00:00 31.2 17 Sudeste 37 Sudeste 0 -- -- 35
2020-06-29 13:00:00 31.1 14 Sudeste 31 Este 0 -- -- 35
2020-06-29 12:00:00 30.4 10 Sudeste 23 Sudeste 0 -- -- 36
2020-06-29 11:00:00 27.4 4 Sudoeste 12 Sudoeste 0 -- -- 50
2020-06-29 10:00:00 23.9 3 Noroeste 4 Noroeste 0 -- -- 66
2020-06-29 09:00:00 20 0 Calma 3 Sudeste 0 -- -- 79
2020-06-29 08:00:00 16.3 2 Este 5 Norte 0 -- -- 92
2020-06-29 07:00:00 15.2 3 Este 6 Este 0 -- -- 92
2020-06-29 06:00:00 15.6 0 Calma 6 Este 0 -- -- 92
2020-06-29 05:00:00 16.6 3 Este 5 Norte 0 -- -- 90
2020-06-29 04:00:00 17.3 5 Nordeste 8 Nordeste 0 -- -- 89
2020-06-29 03:00:00 17.9 4 Nordeste 7 Nordeste 0 -- -- 87
2020-06-29 02:00:00 18.8 5 Nordeste 8 Nordeste 0 -- -- 85
2020-06-29 01:00:00 20.3 0 Calma 8 Nordeste 0 -- -- 82
2020-06-29 00:00:00 21.6 3 Sudeste 6 Sudeste 0 -- -- 78
2020-06-28 23:00:00 23.4 3 Sudoeste 8 Sur 0 -- -- 71
2020-06-28 22:00:00 24.8 0 Calma 19 Sur 0 -- -- 67
2020-06-28 21:00:00 28.7 10 Sudeste 18 Sur 0 -- -- 52
2020-06-28 20:00:00 31.2 6 Sudeste 18 Sur 0 -- -- 42
2020-06-28 19:00:00 31.9 9 Sur 24 Sudeste 0 -- -- 41
2020-06-28 18:00:00 32 15 Sudeste 31 Sudeste 0 -- -- 42
2020-06-28 17:00:00 33.2 16 Sudeste 28 Sudeste 0 -- -- 40
2020-06-28 16:00:00 33.9 9 Sudeste 25 Sudeste 0 -- -- 35
2020-06-28 15:00:00 33.5 13 Sudeste 26 Este 0 -- -- 36
2020-06-28 14:00:00 32.8 13 Sudeste 24 Sudeste 0 -- -- 41
2020-06-28 13:00:00 32.1 13 Sudeste 23 Sudeste 0 -- -- 41
2020-06-28 12:00:00 31 4 Oeste 12 Sudoeste 0 -- -- 43
2020-06-28 11:00:00 27.8 6 Sur 13 Sudeste 0 -- -- 50
2020-06-28 10:00:00 25 3 Noroeste 4 Oeste 0 -- -- 57
2020-06-28 09:00:00 21.7 0 Calma 5 Este 0 -- -- 68
2020-06-28 08:00:00 16.9 0 Calma 7 Nordeste 0 -- -- 82
2020-06-28 07:00:00 15.2 3 Este 7 Nordeste 0 -- -- 86
2020-06-28 06:00:00 16.2 2 Nordeste 7 Este 0 -- -- 84
2020-06-28 05:00:00 17 3 Sudeste 9 Este 0 -- -- 81
2020-06-28 04:00:00 17.6 7 Este 10 Nordeste 0 -- -- 80
2020-06-28 03:00:00 18.4 7 Este 9 Nordeste 0 -- -- 79
2020-06-28 02:00:00 19.3 4 Este 8 Nordeste 0 -- -- 76
2020-06-28 01:00:00 20.6 5 Este 8 Nordeste 0 -- -- 73
2020-06-28 00:00:00 22.4 2 Sudoeste 7 Nordeste 0 -- -- 67
2020-06-27 23:00:00 24.1 0 Calma 12 Oeste 0 -- -- 61
2020-06-27 22:00:00 27.8 5 Oeste 16 Oeste 0 -- -- 51
2020-06-27 21:00:00 30.5 10 Oeste 27 Oeste 0 -- -- 44
2020-06-27 20:00:00 31.9 16 Oeste 33 Noroeste 0 -- -- 42
2020-06-27 19:00:00 32.5 19 Oeste 36 Oeste 0 -- -- 42
2020-06-27 18:00:00 33 19 Oeste 38 Oeste 0 -- -- 40
2020-06-27 17:00:00 32.2 20 Oeste 43 Oeste 0 -- -- 44
2020-06-27 16:00:00 31.3 22 Oeste 39 Oeste 0 -- -- 46
2020-06-27 15:00:00 32 22 Oeste 38 Oeste 0 -- -- 41
2020-06-27 14:00:00 31.4 17 Oeste 44 Oeste 0 -- -- 45
2020-06-27 13:00:00 29.4 24 Oeste 42 Oeste 0 -- -- 49
2020-06-27 12:00:00 27.2 21 Oeste 37 Oeste 0 -- -- 55
2020-06-27 11:00:00 25.2 20 Oeste 36 Oeste 0 -- -- 60
2020-06-27 10:00:00 23.5 19 Oeste 36 Oeste 0 -- -- 64
2020-06-27 09:00:00 21.7 2 Este 8 Este 0 -- -- 63
2020-06-27 08:00:00 15 4 Este 10 Este 0 -- -- 79
2020-06-27 07:00:00 12.4 5 Nordeste 9 Nordeste 0 -- -- 87
2020-06-27 06:00:00 12.8 6 Este 9 Este 0 -- -- 85
2020-06-27 05:00:00 13.3 6 Este 9 Este 0 -- -- 84
2020-06-27 04:00:00 14 5 Este 11 Nordeste 0 -- -- 83
2020-06-27 03:00:00 14.3 7 Este 10 Nordeste 0 -- -- 83
2020-06-27 02:00:00 16.4 6 Nordeste 9 Noroeste 0 -- -- 77
2020-06-27 01:00:00 19.8 3 Noroeste 18 Oeste 0 -- -- 67
2020-06-27 00:00:00 21.6 13 Oeste 30 Oeste 0 -- -- 62
2020-06-26 23:00:00 22.7 15 Oeste 27 Noroeste 0 -- -- 58
2020-06-26 22:00:00 24.5 9 Oeste 27 Noroeste 0 -- -- 49
2020-06-26 21:00:00 27.1 14 Oeste 32 Oeste 0 -- -- 46
2020-06-26 20:00:00 28.5 18 Oeste 35 Oeste 0 -- -- 47
2020-06-26 19:00:00 29.3 20 Oeste 35 Oeste 0 -- -- 51
2020-06-26 18:00:00 29.7 18 Oeste 35 Oeste 0 -- -- 50
2020-06-26 17:00:00 29.6 18 Oeste 33 Oeste 0 -- -- 52
2020-06-26 16:00:00 29.1 19 Oeste 35 Oeste 0 -- -- 53
2020-06-26 15:00:00 27.9 19 Oeste 38 Oeste 0 -- -- 57
2020-06-26 14:00:00 26.9 23 Oeste 42 Oeste 0 -- -- 60
2020-06-26 13:00:00 26.1 21 Oeste 40 Oeste 0 -- -- 63
2020-06-26 12:00:00 25 23 Oeste 38 Oeste 0 -- -- 66
2020-06-26 11:00:00 24.1 21 Oeste 33 Oeste 0 -- -- 69
2020-06-26 10:00:00 23.5 13 Noroeste 24 Noroeste 0 -- -- 71
2020-06-26 09:00:00 20.3 0 Calma 5 Este 0 -- -- 80
2020-06-26 08:00:00 16.2 3 Nordeste 8 Nordeste 0 -- -- 93
2020-06-26 07:00:00 15.2 4 Este 8 Nordeste 0 -- -- 93
2020-06-26 06:00:00 15.8 4 Nordeste 7 Nordeste 0 -- -- 92
2020-06-26 05:00:00 16.5 3 Nordeste 11 Nordeste 0 -- -- 91
2020-06-26 04:00:00 16.9 6 Nordeste 9 Nordeste 0 -- -- 89
2020-06-26 03:00:00 19.8 3 Norte 15 Oeste 0 -- -- 83
2020-06-26 02:00:00 20.4 9 Noroeste 23 Oeste 0 -- -- 82
2020-06-26 01:00:00 21.2 6 Oeste 21 Oeste 0 -- -- 78
2020-06-26 00:00:00 21.6 5 Sur 15 Oeste 0 -- -- 77
2020-06-25 23:00:00 23.1 7 Oeste 22 Oeste 0 -- -- 72
2020-06-25 22:00:00 24.8 10 Oeste 21 Oeste 0 -- -- 66
2020-06-25 21:00:00 27.9 7 Sur 20 Este 0 -- -- 49
2020-06-25 20:00:00 29.4 10 Este 25 Sudeste 0 -- -- 39
2020-06-25 19:00:00 30.1 13 Sudeste 25 Sudeste 0 -- -- 39
2020-06-25 18:00:00 30.3 15 Sudeste 27 Sudeste 0 -- -- 40
2020-06-25 17:00:00 30.2 16 Este 30 Sudeste 0 -- -- 40
2020-06-25 16:00:00 30.4 14 Sudeste 30 Sur 0 -- -- 40
2020-06-25 15:00:00 30.5 11 Sudeste 27 Este 0 -- -- 42
2020-06-25 14:00:00 29.9 11 Sur 30 Sudeste 0 -- -- 43
2020-06-25 13:00:00 29.3 10 Sur 23 Sur 0 -- -- 44
2020-06-25 12:00:00 28.8 8 Sudeste 18 Sudeste 0 -- -- 47
2020-06-25 11:00:00 26.8 4 Oeste 9 Sudoeste 0 -- -- 55
2020-06-25 10:00:00 23.3 2 Noroeste 4 Oeste 0 -- -- 63
2020-06-25 09:00:00 19.5 0 Calma 4 Este 0 -- -- 73
2020-06-25 08:00:00 15 2 Sudeste 8 Este 0 -- -- 89
2020-06-25 07:00:00 13.9 4 Nordeste 8 Este 0 -- -- 91
2020-06-25 06:00:00 14.4 2 Nordeste 6 Nordeste 0 -- -- 90
2020-06-25 05:00:00 15 3 Este 6 Este 0 -- -- 89
2020-06-25 04:00:00 15.6 3 Este 6 Norte 0 -- -- 90
2020-06-25 03:00:00 16.2 4 Nordeste 8 Nordeste 0 -- -- 88
2020-06-25 02:00:00 16.9 4 Nordeste 9 Este 0 -- -- 86
2020-06-25 01:00:00 18 3 Nordeste 7 Noroeste 0 -- -- 84
2020-06-25 00:00:00 19.2 5 Nordeste 10 Nordeste 0 -- -- 80
2020-06-24 23:00:00 21.1 2 Nordeste 10 Sudeste 0 -- -- 78
2020-06-24 22:00:00 22.8 6 Sudeste 19 Sur 0 -- -- 73
2020-06-24 21:00:00 24.6 8 Sudeste 27 Sudeste 0 -- -- 63
2020-06-24 20:00:00 25.9 17 Sudeste 33 Sudeste 0 -- -- 56
2020-06-24 19:00:00 26.7 17 Sudeste 42 Sudeste 0 -- -- 56
2020-06-24 18:00:00 26.9 25 Sudeste 43 Sudeste 0 -- -- 53
2020-06-24 17:00:00 28 22 Sudeste 35 Sudeste 0 -- -- 52
2020-06-24 16:00:00 28.6 17 Sudeste 37 Sudeste 0 -- -- 53
2020-06-24 15:00:00 28.3 17 Sudeste 41 Sudeste 0 -- -- 53
2020-06-24 14:00:00 28.3 22 Sudeste 36 Este 0 -- -- 50
2020-06-24 13:00:00 28.7 21 Sudeste 35 Sudeste 0 -- -- 44
2020-06-24 12:00:00 28.3 18 Sudeste 35 Este 0 -- -- 43
2020-06-24 11:00:00 27.5 13 Sudeste 24 Sudeste 0 -- -- 50
2020-06-24 10:00:00 25.2 5 Oeste 15 Sudoeste 0 -- -- 57
2020-06-24 09:00:00 20.5 3 Norte 6 Nordeste 0 -- -- 77
2020-06-24 08:00:00 16.8 4 Nordeste 10 Nordeste 0 -- -- 86
2020-06-24 07:00:00 15.9 7 Nordeste 10 Nordeste 0 -- -- 88
2020-06-24 06:00:00 16.2 0 Calma 9 Nordeste 0 -- -- 88
2020-06-24 05:00:00 16.5 5 Este 8 Nordeste 0 -- -- 87
2020-06-24 04:00:00 17.2 4 Nordeste 10 Nordeste 0 -- -- 85
2020-06-24 03:00:00 17.5 5 Este 9 Este 0 -- -- 82
2020-06-24 02:00:00 18.2 2 Norte 8 Norte 0 -- -- 79
2020-06-24 01:00:00 18.9 6 Nordeste 10 Nordeste 0 -- -- 77
2020-06-24 00:00:00 20.4 5 Nordeste 12 Sudeste 0 -- -- 72
2020-06-23 23:00:00 22.7 7 Sudeste 16 Sur 0 -- -- 65
2020-06-23 22:00:00 23.9 8 Sudeste 18 Sur 0 -- -- 62
2020-06-23 21:00:00 25.3 12 Sudeste 24 Sudeste 0 -- -- 57
2020-06-23 20:00:00 27.3 12 Sudeste 31 Sudeste 0 -- -- 50
2020-06-23 19:00:00 28.8 13 Sur 28 Sur 0 -- -- 46
2020-06-23 18:00:00 29.7 18 Sudeste 44 Sudeste 0 -- -- 43
2020-06-23 17:00:00 29.9 15 Sudeste 41 Sudeste 0 -- -- 43
2020-06-23 16:00:00 29.8 15 Sudeste 32 Sudeste 0 -- -- 44
2020-06-23 15:00:00 29.2 16 Sudeste 33 Sudeste 0 -- -- 47
2020-06-23 14:00:00 27.9 19 Sudeste 33 Este 0 -- -- 50
2020-06-23 13:00:00 27.5 18 Sudeste 37 Sudeste 0 -- -- 52
2020-06-23 12:00:00 27.5 12 Sur 31 Sudeste 0 -- -- 53
2020-06-23 11:00:00 26.6 14 Sudeste 25 Este 0 -- -- 55
2020-06-23 10:00:00 25 10 Sudeste 18 Sudeste 0 -- -- 59
2020-06-23 09:00:00 19.9 2 Norte 6 Noroeste 0 -- -- 72
2020-06-23 08:00:00 15.7 4 Norte 7 Nordeste 0 -- -- 86
2020-06-23 07:00:00 14.5 4 Nordeste 7 Nordeste 0 -- -- 86
2020-06-23 06:00:00 14.8 3 Nordeste 5 Norte 0 -- -- 85
2020-06-23 05:00:00 15.5 0 Calma 10 Nordeste 0 -- -- 82
2020-06-23 04:00:00 16 3 Nordeste 7 Norte 0 -- -- 79
2020-06-23 03:00:00 16.6 5 Nordeste 10 Nordeste 0 -- -- 76
2020-06-23 02:00:00 17.2 4 Nordeste 10 Nordeste 0 -- -- 73
2020-06-23 01:00:00 18.2 4 Nordeste 9 Nordeste 0 -- -- 69
2020-06-23 00:00:00 19.6 3 Nordeste 8 Nordeste 0 -- -- 66
2020-06-22 23:00:00 22.6 0 Calma 16 Sudoeste 0 -- -- 56
2020-06-22 22:00:00 23.7 8 Sur 24 Sudeste 0 -- -- 52
2020-06-22 21:00:00 25 14 Sur 31 Sudeste 0 -- -- 50
2020-06-22 20:00:00 26.2 17 Sudeste 37 Sudeste 0 -- -- 46
2020-06-22 19:00:00 27.4 17 Sudeste 38 Sudeste 0 -- -- 44
2020-06-22 18:00:00 29 18 Sudeste 39 Este 0 -- -- 38
2020-06-22 17:00:00 30.7 26 Sudeste 49 Sudeste 0 -- -- 29
2020-06-22 16:00:00 32.1 18 Sudeste 41 Sudeste 0 -- -- 28
2020-06-22 15:00:00 31.2 24 Sudeste 40 Este 0 -- -- 32
2020-06-22 14:00:00 30.7 20 Sudeste 45 Sudeste 0 -- -- 33
2020-06-22 13:00:00 29.2 21 Sudeste 45 Sudeste 0 -- -- 39
2020-06-22 12:00:00 27.8 18 Sudeste 39 Sudeste 0 -- -- 41
2020-06-22 11:00:00 27.5 5 Sur 14 Sur 0 -- -- 49
2020-06-22 10:00:00 23.5 0 Calma 4 Oeste 0 -- -- 59
2020-06-22 09:00:00 19.4 0 Calma 2 Sudoeste 0 -- -- 72
2020-06-22 08:00:00 15 0 Calma 6 Nordeste 0 -- -- 84
2020-06-22 07:00:00 13.1 2 Norte 6 Nordeste 0 -- -- 89
2020-06-22 06:00:00 13.8 3 Este 5 Este 0 -- -- 85
2020-06-22 05:00:00 14.6 3 Nordeste 6 Norte 0 -- -- 83
2020-06-22 04:00:00 14.9 3 Nordeste 8 Nordeste 0 -- -- 81
2020-06-22 03:00:00 15.7 5 Nordeste 7 Nordeste 0 -- -- 78
2020-06-22 02:00:00 16.9 4 Nordeste 7 Nordeste 0 -- -- 74
2020-06-22 01:00:00 18 4 Nordeste 9 Este 0 -- -- 68
2020-06-22 00:00:00 19.6 4 Este 9 Nordeste 0 -- -- 63
2020-06-21 23:00:00 22 4 Nordeste 6 Nordeste 0 -- -- 55
2020-06-21 22:00:00 25.2 3 Oeste 13 Sudeste 0 -- -- 49
2020-06-21 21:00:00 28.9 6 Sudeste 16 Sudeste 0 -- -- 38
2020-06-21 20:00:00 30.3 9 Sudeste 24 Sudeste 0 -- -- 34
2020-06-21 19:00:00 31.5 13 Sudeste 24 Sudeste 0 -- -- 33
2020-06-21 18:00:00 33 14 Sudeste 29 Sur 0 -- -- 31
2020-06-21 17:00:00 33.7 16 Sudeste 35 Sudeste 0 -- -- 30
2020-06-21 16:00:00 34.8 20 Sudeste 32 Sudeste 0 -- -- 31
2020-06-21 15:00:00 35.6 18 Sudeste 29 Sudeste 0 -- -- 31
2020-06-21 14:00:00 35.6 5 Este 14 Sur 0 -- -- 29
2020-06-21 13:00:00 34 5 Sudoeste 13 Sudoeste 0 -- -- 32
2020-06-21 12:00:00 31.3 3 Sudeste 11 Sudoeste 0 -- -- 37
2020-06-21 11:00:00 27.9 3 Noroeste 6 Oeste 0 -- -- 47
2020-06-21 10:00:00 23.7 0 Calma 3 Norte 0 -- -- 58
2020-06-21 09:00:00 19.6 0 Calma 4 Este 0 -- -- 70
2020-06-21 08:00:00 14.9 0 Calma 7 Nordeste 0 -- -- 86
2020-06-21 07:00:00 13.1 4 Este 7 Nordeste 0 -- -- 89
2020-06-21 06:00:00 13.7 2 Nordeste 6 Nordeste 0 -- -- 88
2020-06-21 05:00:00 14.1 3 Nordeste 8 Nordeste 0 -- -- 87
2020-06-21 04:00:00 14.7 4 Este 6 Nordeste 0 -- -- 85
2020-06-21 03:00:00 15.2 4 Nordeste 8 Nordeste 0 -- -- 82
2020-06-21 02:00:00 16.1 2 Norte 8 Nordeste 0 -- -- 77
2020-06-21 01:00:00 17.2 4 Este 6 Nordeste 0 -- -- 74
2020-06-21 00:00:00 18.4 5 Este 7 Este 0 -- -- 70
2020-06-20 23:00:00 20.4 4 Nordeste 8 Norte 0 -- -- 63
2020-06-20 22:00:00 23.8 2 Norte 4 Sudeste 0 -- -- 54
2020-06-20 21:00:00 27.5 4 Sudeste 10 Sur 0 -- -- 41
2020-06-20 20:00:00 27.9 8 Sudeste 17 Sur 0 -- -- 41
2020-06-20 19:00:00 28.6 8 Sudeste 19 Sur 0 -- -- 43
2020-06-20 18:00:00 28.8 12 Sur 21 Sur 0 -- -- 45
2020-06-20 17:00:00 29.2 12 Sudeste 28 Sudeste 0 -- -- 42
2020-06-20 16:00:00 29.1 15 Sudeste 37 Sudeste 0 -- -- 43
2020-06-20 15:00:00 28.7 21 Sudeste 35 Sur 0 -- -- 43
2020-06-20 14:00:00 29.2 16 Sudeste 30 Sudeste 0 -- -- 40
2020-06-20 13:00:00 28.9 13 Sudeste 21 Sudeste 0 -- -- 41
2020-06-20 12:00:00 27.9 8 Sudeste 18 Este 0 -- -- 46
2020-06-20 11:00:00 25.1 4 Oeste 8 Noroeste 0 -- -- 60
2020-06-20 10:00:00 22.3 3 Noroeste 5 Norte 0 -- -- 68
2020-06-20 09:00:00 18.5 0 Calma 3 Noroeste 0 -- -- 79
2020-06-20 08:00:00 14.5 2 Este 5 Este 0 -- -- 90
2020-06-20 07:00:00 13.2 0 Calma 5 Nordeste 0 -- -- 93
2020-06-20 06:00:00 13.6 2 Nordeste 5 Nordeste 0 -- -- 92
2020-06-20 05:00:00 14.4 3 Este 6 Nordeste 0 -- -- 90
2020-06-20 04:00:00 15.2 4 Nordeste 8 Nordeste 0 -- -- 88
2020-06-20 03:00:00 16 5 Este 7 Nordeste 0 -- -- 86
2020-06-20 02:00:00 16.9 3 Nordeste 8 Este 0 -- -- 83
2020-06-20 01:00:00 17.9 5 Este 8 Este 0 -- -- 79
2020-06-20 00:00:00 19.2 4 Este 8 Este 0 -- -- 73
2020-06-19 23:00:00 21.4 3 Este 5 Noroeste 0 -- -- 64
2020-06-19 22:00:00 24.8 6 Oeste 19 Oeste 0 -- -- 53
2020-06-19 21:00:00 26.9 11 Oeste 23 Oeste 0 -- -- 49
2020-06-19 20:00:00 28.2 13 Oeste 25 Oeste 0 -- -- 49
2020-06-19 19:00:00 28.9 14 Oeste 29 Oeste 0 -- -- 48
2020-06-19 18:00:00 29.6 14 Oeste 31 Sudoeste 0 -- -- 48
2020-06-19 17:00:00 29.5 17 Oeste 30 Oeste 0 -- -- 48
2020-06-19 16:00:00 29.4 15 Oeste 27 Sudoeste 0 -- -- 49
2020-06-19 15:00:00 28.6 13 Oeste 29 Oeste 0 -- -- 51
2020-06-19 14:00:00 27.6 12 Oeste 27 Oeste 0 -- -- 54
2020-06-19 13:00:00 26 15 Oeste 30 Oeste 0 -- -- 57
2020-06-19 12:00:00 24.4 17 Oeste 31 Noroeste 0 -- -- 62
2020-06-19 11:00:00 23.2 16 Oeste 34 Noroeste 0 -- -- 66
2020-06-19 10:00:00 22.1 14 Oeste 24 Oeste 0 -- -- 69
2020-06-19 09:00:00 20.1 11 Noroeste 22 Oeste 0 -- -- 75
2020-06-19 08:00:00 15.6 0 Calma 4 Norte 0 -- -- 85
2020-06-19 07:00:00 14.9 2 Nordeste 7 Norte 0 -- -- 85
2020-06-19 06:00:00 17.3 5 Norte 18 Oeste 0 -- -- 78
2020-06-19 05:00:00 18.3 9 Oeste 24 Oeste 0 -- -- 81
2020-06-19 04:00:00 18.1 10 Oeste 27 Oeste 0 -- -- 79
2020-06-19 03:00:00 18.5 18 Oeste 32 Oeste 0 -- -- 74
2020-06-19 02:00:00 18.7 12 Oeste 27 Oeste 0 -- -- 62
2020-06-19 01:00:00 19.1 10 Oeste 23 Oeste 0 -- -- 56
2020-06-19 00:00:00 19.5 13 Oeste 24 Oeste 0 -- -- 64
2020-06-18 23:00:00 20.9 13 Oeste 26 Oeste 0 -- -- 57
2020-06-18 22:00:00 23 17 Oeste 28 Oeste 0 -- -- 46
2020-06-18 21:00:00 25.5 13 Oeste 31 Noroeste 0 -- -- 39
2020-06-18 20:00:00 27.1 16 Noroeste 32 Oeste 0 -- -- 35
2020-06-18 19:00:00 28.2 14 Oeste 36 Oeste 0 -- -- 37
2020-06-18 18:00:00 28.8 20 Oeste 39 Sudoeste 0 -- -- 35
2020-06-18 17:00:00 29.7 23 Oeste 38 Oeste 0 -- -- 37
2020-06-18 16:00:00 29.1 14 Sudeste 32 Sudeste 0 -- -- 45
2020-06-18 15:00:00 28.8 17 Sudeste 29 Sudeste 0 -- -- 49
2020-06-18 14:00:00 27.7 14 Sudeste 26 Sudeste 0 -- -- 50
2020-06-18 13:00:00 27.2 15 Sudeste 28 Sudeste 0 -- -- 50
2020-06-18 12:00:00 25.9 13 Sudeste 30 Sudeste 0 -- -- 52
2020-06-18 11:00:00 26.1 17 Sudeste 30 Sudeste 0 -- -- 49
2020-06-18 10:00:00 24.9 0 Calma 8 Noroeste 0 -- -- 50
2020-06-18 09:00:00 20.3 3 Noroeste 8 Este 0 -- -- 68
2020-06-18 08:00:00 14.9 5 Este 9 Este 0 -- -- 80
2020-06-18 07:00:00 13.5 5 Este 10 Nordeste 0 -- -- 84
2020-06-18 06:00:00 13.9 6 Este 9 Este 0 -- -- 83
2020-06-18 05:00:00 14.5 5 Este 9 Este 0 -- -- 82
2020-06-18 04:00:00 15.6 7 Este 9 Este 0 -- -- 79
2020-06-18 03:00:00 16.9 0 Calma 6 Noroeste 0 -- -- 76
2020-06-18 02:00:00 17.5 0 Calma 8 Sudoeste 0 -- -- 74
2020-06-18 01:00:00 18.5 4 Oeste 16 Oeste 0 -- -- 72
2020-06-18 00:00:00 20.8 3 Noroeste 17 Oeste 0 -- -- 66
2020-06-17 23:00:00 22.4 6 Noroeste 15 Oeste 0 -- -- 60
2020-06-17 22:00:00 24.3 8 Oeste 22 Noroeste 0 -- -- 53
2020-06-17 21:00:00 26.8 15 Noroeste 30 Oeste 0 -- -- 46
2020-06-17 20:00:00 28.5 15 Noroeste 36 Noroeste 0 -- -- 42
2020-06-17 19:00:00 29.5 18 Noroeste 32 Noroeste 0 -- -- 41
2020-06-17 18:00:00 30.3 15 Noroeste 29 Oeste 0 -- -- 38
2020-06-17 17:00:00 30.1 14 Noroeste 31 Noroeste 0 -- -- 40
2020-06-17 16:00:00 29.6 14 Noroeste 30 Noroeste 0 -- -- 42
2020-06-17 15:00:00 29.3 18 Noroeste 32 Noroeste 0 -- -- 42
2020-06-17 14:00:00 28.6 17 Noroeste 31 Noroeste 0 -- -- 43
2020-06-17 13:00:00 27.5 17 Noroeste 32 Noroeste 0 -- -- 47
2020-06-17 12:00:00 26.8 17 Noroeste 31 Oeste 0 -- -- 51
2020-06-17 11:00:00 26.2 9 Noroeste 17 Oeste 0 -- -- 56
2020-06-17 10:00:00 23.3 10 Oeste 21 Oeste 0 -- -- 67
2020-06-17 09:00:00 21.1 0 Calma 7 Este 0 -- -- 73
2020-06-17 08:00:00 15.9 5 Este 8 Nordeste 0 -- -- 91
2020-06-17 07:00:00 14.8 5 Este 10 Este 0 -- -- 92
2020-06-17 06:00:00 15.4 5 Este 10 Nordeste 0 -- -- 91
2020-06-17 05:00:00 16 7 Este 12 Nordeste 0 -- -- 90
2020-06-17 04:00:00 17 4 Sudeste 9 Nordeste 0 -- -- 87
2020-06-17 03:00:00 18.7 6 Este 14 Sudoeste 0 -- -- 83
2020-06-17 02:00:00 19.1 7 Sudoeste 13 Sudoeste 0 -- -- 83
2020-06-17 01:00:00 18.6 3 Sudoeste 9 Noroeste 0 -- -- 83
2020-06-17 00:00:00 20 5 Noroeste 17 Oeste 0 -- -- 79
2020-06-16 23:00:00 21 10 Oeste 22 Oeste 0 -- -- 75
2020-06-16 22:00:00 22.1 16 Oeste 26 Oeste 0 -- -- 71
2020-06-16 21:00:00 24 15 Oeste 37 Oeste 0 -- -- 63
2020-06-16 20:00:00 25.6 22 Oeste 39 Oeste 0 -- -- 58
2020-06-16 19:00:00 27.4 14 Noroeste 37 Noroeste 0 -- -- 49
2020-06-16 18:00:00 27.8 21 Oeste 37 Oeste 0 -- -- 45
2020-06-16 17:00:00 27.6 18 Noroeste 41 Oeste 0 -- -- 44
2020-06-16 16:00:00 27.3 22 Oeste 40 Oeste 0 -- -- 43
2020-06-16 15:00:00 27.5 23 Oeste 38 Oeste 0 -- -- 45
2020-06-16 14:00:00 26.6 22 Oeste 37 Oeste 0 -- -- 41
2020-06-16 13:00:00 25.8 15 Noroeste 35 Noroeste 0 -- -- 44
2020-06-16 12:00:00 25.9 12 Noroeste 33 Oeste 0 -- -- 47
2020-06-16 11:00:00 25.1 15 Noroeste 34 Oeste 0 -- -- 48
2020-06-16 10:00:00 24.6 12 Norte 28 Noroeste 0 -- -- 50
2020-06-16 09:00:00 22.3 2 Noroeste 8 Oeste 0 -- -- 60
2020-06-16 08:00:00 18.9 0 Calma 12 Oeste 0 -- -- 70
2020-06-16 07:00:00 17.4 5 Noroeste 13 Oeste 0 -- -- 73
2020-06-16 06:00:00 17 3 Noroeste 14 Sudoeste 0 -- -- 73
2020-06-16 05:00:00 16.9 2 Este 10 Este 0 -- -- 72
2020-06-16 04:00:00 17 4 Noroeste 13 Oeste 0 -- -- 69
2020-06-16 03:00:00 18.4 4 Oeste 17 Oeste 0 -- -- 62
2020-06-16 02:00:00 18.3 4 Noroeste 12 Oeste 0 -- -- 62
2020-06-16 01:00:00 18.2 4 Noroeste 11 Noroeste 0 -- -- 63
2020-06-16 00:00:00 19.4 8 Oeste 17 Oeste 0 -- -- 60
2020-06-15 23:00:00 20.5 5 Noroeste 30 Oeste 0 -- -- 54
2020-06-15 22:00:00 21.8 15 Oeste 31 Oeste 0 -- -- 51
2020-06-15 21:00:00 24.5 20 Oeste 37 Oeste 0 -- -- 44
2020-06-15 20:00:00 27.4 17 Oeste 31 Oeste 0 -- -- 43
2020-06-15 19:00:00 28.7 20 Oeste 33 Oeste 0 -- -- 42
2020-06-15 18:00:00 29.4 16 Oeste 31 Noroeste 0 -- -- 41
2020-06-15 17:00:00 29.1 19 Oeste 39 Oeste 0 -- -- 42
2020-06-15 16:00:00 28.4 20 Oeste 38 Oeste 0 -- -- 44
2020-06-15 15:00:00 27.5 18 Oeste 37 Sudoeste 0 -- -- 45
2020-06-15 14:00:00 26.7 20 Oeste 37 Oeste 0 -- -- 49
2020-06-15 13:00:00 25.7 22 Oeste 36 Oeste 0 -- -- 50
2020-06-15 12:00:00 24.6 17 Oeste 33 Oeste 0 -- -- 51
2020-06-15 11:00:00 23.4 17 Oeste 30 Oeste 0 -- -- 57
2020-06-15 10:00:00 21.6 0 Calma 7 Norte 0 -- -- 64
2020-06-15 09:00:00 17.9 2 Nordeste 9 Nordeste 0 -- -- 75
2020-06-15 08:00:00 13.1 6 Nordeste 10 Nordeste 0 -- -- 88
2020-06-15 07:00:00 11.3 9 Nordeste 11 Nordeste 0 -- -- 92
2020-06-15 06:00:00 11.4 6 Este 10 Este 0 -- -- 90
2020-06-15 05:00:00 11.9 6 Este 8 Este 0 -- -- 88
2020-06-15 04:00:00 12.8 3 Este 8 Este 0 -- -- 84
2020-06-15 03:00:00 15.2 2 Oeste 14 Oeste 0 -- -- 76
2020-06-15 02:00:00 15.7 0 Calma 8 Noroeste 0 -- -- 74
2020-06-15 01:00:00 18.4 6 Noroeste 21 Oeste 0 -- -- 65
2020-06-15 00:00:00 18 9 Oeste 20 Oeste 0 -- -- 66
2020-06-14 23:00:00 18.8 8 Oeste 25 Oeste 0 -- -- 63
2020-06-14 22:00:00 20 14 Oeste 26 Oeste 0 -- -- 57
2020-06-14 21:00:00 22.3 15 Oeste 33 Oeste 0 -- -- 48
2020-06-14 20:00:00 23.9 21 Oeste 36 Oeste 0 -- -- 49
2020-06-14 19:00:00 25.1 19 Oeste 40 Oeste 0 -- -- 45
2020-06-14 18:00:00 25.8 19 Oeste 44 Oeste 0 -- -- 46
2020-06-14 17:00:00 25.8 26 Oeste 43 Oeste 0 -- -- 43
2020-06-14 16:00:00 26.6 22 Oeste 40 Oeste 0 -- -- 44
2020-06-14 15:00:00 26.2 21 Oeste 36 Oeste 0 -- -- 46
2020-06-14 14:00:00 26.3 13 Noroeste 29 Oeste 0 -- -- 43
2020-06-14 13:00:00 25.2 15 Noroeste 37 Oeste 0 -- -- 46
2020-06-14 12:00:00 23.6 22 Oeste 39 Oeste 0 -- -- 53
2020-06-14 11:00:00 22.7 18 Oeste 31 Oeste 0 -- -- 54
2020-06-14 10:00:00 21 14 Oeste 28 Oeste 0 -- -- 58
2020-06-14 09:00:00 19 2 Oeste 9 Nordeste 0 -- -- 69
2020-06-14 08:00:00 13.1 6 Este 11 Oeste 0 -- -- 84
2020-06-14 07:00:00 12.5 4 Sudeste 7 Este 0 -- -- 85
2020-06-14 06:00:00 13.9 2 Oeste 10 Oeste 0 -- -- 79
2020-06-14 05:00:00 15.7 3 Nordeste 10 Oeste 0 -- -- 72
2020-06-14 04:00:00 17.2 5 Noroeste 28 Oeste 0 -- -- 65
2020-06-14 03:00:00 17.7 15 Oeste 27 Oeste 0 -- -- 67
2020-06-14 02:00:00 17.8 5 Noroeste 20 Oeste 0 -- -- 66
2020-06-14 01:00:00 17.1 8 Oeste 22 Noroeste 0 -- -- 70
2020-06-14 00:00:00 16.9 0 Calma 9 Noroeste 0 -- -- 71
2020-06-13 23:00:00 18.2 2 Noroeste 10 Noroeste 0 -- -- 65
2020-06-13 22:00:00 20.5 6 Noroeste 23 Oeste 0 -- -- 54
2020-06-13 21:00:00 22.3 12 Oeste 33 Oeste 0 -- -- 50
2020-06-13 20:00:00 24.6 14 Oeste 36 Oeste 0 -- -- 46
2020-06-13 19:00:00 25.6 21 Oeste 35 Oeste 0 -- -- 46
2020-06-13 18:00:00 26.8 19 Oeste 33 Oeste 0 -- -- 42
2020-06-13 17:00:00 27.2 15 Oeste 33 Oeste 0 -- -- 40
2020-06-13 16:00:00 26.6 10 Oeste 25 Sudoeste 0 -- -- 40
2020-06-13 15:00:00 25.7 12 Oeste 30 Oeste 0 -- -- 42
2020-06-13 14:00:00 25.3 13 Oeste 29 Oeste 0 -- -- 44
2020-06-13 13:00:00 24.4 12 Oeste 28 Oeste 0 -- -- 43
2020-06-13 12:00:00 23.4 9 Oeste 23 Sudoeste 0 -- -- 46
2020-06-13 11:00:00 22.4 8 Noroeste 19 Noroeste 0 -- -- 50
2020-06-13 10:00:00 20.8 6 Norte 12 Norte 0 -- -- 56
2020-06-13 09:00:00 18 0 Calma 6 Norte 0 -- -- 74
2020-06-13 08:00:00 13.1 0 Calma 4 Este 0 -- -- 91
2020-06-13 07:00:00 11.5 3 Sudeste 5 Sur 0 -- -- 92
2020-06-13 06:00:00 12.3 0 Calma 7 Norte 0 -- -- 90
2020-06-13 05:00:00 13.9 5 Noroeste 12 Oeste 0 -- -- 87
2020-06-13 04:00:00 13.9 0 Calma 6 Noroeste 0 -- -- 86
2020-06-13 03:00:00 16 4 Noroeste 11 Noroeste 0 -- -- 77
2020-06-13 02:00:00 17.7 4 Noroeste 17 Noroeste 0 -- -- 72
2020-06-13 01:00:00 18.5 12 Oeste 22 Oeste 0 -- -- 69
2020-06-13 00:00:00 18.5 11 Oeste 24 Oeste 0 -- -- 68
2020-06-12 23:00:00 18.2 12 Oeste 28 Oeste 0 -- -- 69
2020-06-12 22:00:00 18.8 19 Oeste 32 Oeste 0 -- -- 65
2020-06-12 21:00:00 19.7 17 Oeste 32 Oeste 0 -- -- 59
2020-06-12 20:00:00 21 16 Oeste 35 Noroeste 0 -- -- 51
2020-06-12 19:00:00 22.8 19 Oeste 37 Oeste 0 -- -- 47
2020-06-12 18:00:00 23 23 Oeste 42 Oeste 0 -- -- 47
2020-06-12 17:00:00 23 22 Oeste 42 Oeste 0 -- -- 49
2020-06-12 16:00:00 23.7 24 Oeste 41 Oeste 0 -- -- 52
2020-06-12 15:00:00 23 19 Oeste 35 Noroeste 0 -- -- 53
2020-06-12 14:00:00 22.8 18 Noroeste 35 Oeste 0 -- -- 57
2020-06-12 13:00:00 21.9 16 Noroeste 34 Norte 0 -- -- 58
2020-06-12 12:00:00 20.6 17 Noroeste 34 Oeste 0 -- -- 63
2020-06-12 11:00:00 19.9 17 Noroeste 29 Norte 0 -- -- 70
2020-06-12 10:00:00 18.4 12 Noroeste 22 Noroeste 0 -- -- 78
2020-06-12 09:00:00 16.7 4 Noroeste 12 Noroeste 0 -- -- 88
2020-06-12 08:00:00 16.2 4 Noroeste 8 Oeste 0 -- -- 93
2020-06-12 07:00:00 16.6 3 Noroeste 18 Oeste 0.2 -- -- 94
2020-06-12 06:00:00 17 3 Noroeste 20 Oeste 0.2 -- -- 93
2020-06-12 05:00:00 17.3 6 Sudoeste 15 Sudoeste 0 -- -- 91
2020-06-12 04:00:00 17.1 9 Oeste 19 Oeste 0.4 -- -- 91
2020-06-12 03:00:00 17.1 6 Oeste 24 Oeste 0.2 -- -- 91
2020-06-12 02:00:00 17.6 10 Oeste 19 Oeste 0 -- -- 90
2020-06-12 01:00:00 17.6 10 Oeste 27 Oeste 0.6 -- -- 90
2020-06-12 00:00:00 17.6 11 Oeste 18 Oeste 0.2 -- -- 89